Time;durP1;ratioP1;P1;durP2;ratioP2;P2;SDS_P1;SDS_P2;PMS_P1;PMS_P2;Temp;Humidity;BMP_temperature;BMP_pressure;BME280_temperature;BME280_humidity;BME280_pressure;Samples;Min_cycle;Max_cycle;Signal;HPM_P1;HPM_P2
2022/07/20 00:01:30;;;;;;;6.53;4.07;;;16.80;99.90;;;;;;8343011;28;20527;-67
2022/07/20 00:05:31;;;;;;;7.27;3.60;;;16.70;99.90;;;;;;8353589;28;20188;-67
2022/07/20 00:13:58;;;;;;;6.13;3.47;;;16.60;99.90;;;;;;8340771;28;20292;-67
2022/07/20 00:17:59;;;;;;;5.00;3.10;;;16.50;99.90;;;;;;8339759;28;20582;-66
2022/07/20 00:22:00;;;;;;;6.37;3.30;;;16.30;99.90;;;;;;8339633;28;20242;-67
2022/07/20 00:26:01;;;;;;;4.50;3.20;;;16.20;99.90;;;;;;8327278;28;20190;-67
2022/07/20 00:30:03;;;;;;;6.17;3.77;;;16.20;99.90;;;;;;8357569;28;20190;-67
2022/07/20 00:34:04;;;;;;;5.73;3.80;;;16.10;99.90;;;;;;8325167;28;20193;-68
2022/07/20 00:38:07;;;;;;;5.83;3.40;;;16.00;99.90;;;;;;8363258;28;20382;-67
2022/07/20 00:42:08;;;;;;;6.43;3.70;;;15.90;99.90;;;;;;8343200;28;20203;-66
2022/07/20 00:46:09;;;;;;;4.83;3.37;;;15.90;99.90;;;;;;8347894;28;20185;-66
2022/07/20 00:50:09;;;;;;;4.67;3.60;;;15.80;99.90;;;;;;8364977;28;20174;-67
2022/07/20 00:54:11;;;;;;;4.33;3.53;;;15.70;99.90;;;;;;8334356;28;20201;-66
2022/07/20 00:58:13;;;;;;;8.97;4.20;;;15.70;99.90;;;;;;8331439;28;20631;-72
2022/07/20 01:02:14;;;;;;;6.10;3.70;;;15.60;99.90;;;;;;8332154;28;20209;-67
2022/07/20 01:06:14;;;;;;;4.97;3.47;;;15.60;99.90;;;;;;8329443;28;20185;-68
2022/07/20 01:10:17;;;;;;;5.57;3.73;;;15.50;99.90;;;;;;8322336;28;20182;-67
2022/07/20 01:14:18;;;;;;;7.00;3.80;;;15.50;99.90;;;;;;8330911;28;20186;-66
2022/07/20 01:18:19;;;;;;;5.70;3.43;;;15.40;99.90;;;;;;8331243;28;20182;-66
2022/07/20 01:22:20;;;;;;;4.40;3.23;;;15.30;99.90;;;;;;8342944;28;20213;-66
2022/07/20 01:26:21;;;;;;;5.03;3.77;;;15.30;99.90;;;;;;8344936;28;20672;-67
2022/07/20 01:30:22;;;;;;;5.93;4.03;;;15.20;99.90;;;;;;8328710;28;20228;-66
2022/07/20 01:34:23;;;;;;;9.83;4.63;;;15.10;99.90;;;;;;8323847;28;20226;-66
2022/07/20 01:38:23;;;;;;;7.33;4.47;;;15.00;1.00;;;;;;8318636;28;20191;-69
2022/07/20 01:42:25;;;;;;;6.37;3.67;;;14.90;1.00;;;;;;8353922;28;20393;-67
2022/07/20 01:46:25;;;;;;;7.03;4.37;;;14.80;1.00;;;;;;8336577;28;20186;-68
2022/07/20 01:50:26;;;;;;;4.90;4.10;;;14.80;1.00;;;;;;8320589;28;20212;-67
2022/07/20 01:54:27;;;;;;;3.90;3.27;;;14.80;1.00;;;;;;8323957;28;20291;-66
2022/07/20 01:58:28;;;;;;;4.40;3.67;;;14.70;1.00;;;;;;8333540;28;20188;-66
2022/07/20 02:02:29;;;;;;;5.20;3.80;;;14.70;1.00;;;;;;8338654;28;20259;-67
2022/07/20 02:06:30;;;;;;;4.57;3.57;;;14.80;1.00;;;;;;8339862;28;20193;-67
2022/07/20 02:10:31;;;;;;;6.53;3.50;;;14.80;1.00;;;;;;8338517;28;20249;-67
2022/07/20 02:14:32;;;;;;;5.93;3.93;;;14.70;1.00;;;;;;8341163;28;20197;-67
2022/07/20 02:18:33;;;;;;;4.27;3.43;;;14.70;1.00;;;;;;8354890;28;20218;-66
2022/07/20 02:22:33;;;;;;;5.37;3.63;;;14.60;1.00;;;;;;8330426;28;20213;-66
2022/07/20 02:26:34;;;;;;;5.27;3.97;;;14.50;1.00;;;;;;8323970;28;20189;-67
2022/07/20 02:30:35;;;;;;;6.23;4.00;;;14.40;1.00;;;;;;8326967;28;20193;-68
2022/07/20 02:34:36;;;;;;;4.37;3.60;;;14.40;21.30;;;;;;8346567;28;20193;-67
2022/07/20 02:38:38;;;;;;;5.97;4.33;;;14.30;66.40;;;;;;8345703;28;20203;-67
2022/07/20 02:42:39;;;;;;;5.20;3.67;;;14.30;99.90;;;;;;8332130;28;20209;-67
2022/07/20 02:46:40;;;;;;;5.57;4.10;;;14.20;99.90;;;;;;8335192;28;20276;-66
2022/07/20 02:50:42;;;;;;;4.93;4.00;;;14.20;99.90;;;;;;8340467;28;20696;-66
2022/07/20 02:54:43;;;;;;;5.13;3.87;;;14.20;99.90;;;;;;8334003;28;20212;-67
2022/07/20 02:58:44;;;;;;;6.37;4.57;;;14.10;99.90;;;;;;8355343;28;20194;-67
2022/07/20 03:02:45;;;;;;;5.90;4.40;;;14.10;99.90;;;;;;8322487;28;20213;-67
2022/07/20 03:06:46;;;;;;;7.30;4.53;;;14.00;99.90;;;;;;8337748;28;20195;-67
2022/07/20 03:10:47;;;;;;;6.10;4.23;;;14.00;99.90;;;;;;8335519;28;20200;-66
2022/07/20 03:14:48;;;;;;;5.50;3.90;;;14.00;99.90;;;;;;8336901;28;20197;-66
2022/07/20 03:18:49;;;;;;;6.37;4.17;;;14.10;99.90;;;;;;8328547;28;20190;-66
2022/07/20 03:22:50;;;;;;;5.53;4.10;;;14.10;99.90;;;;;;8355172;28;20217;-68
2022/07/20 03:26:51;;;;;;;5.07;3.77;;;14.20;99.90;;;;;;8341085;28;20193;-67
2022/07/20 03:30:52;;;;;;;5.00;4.00;;;14.30;99.90;;;;;;8339003;28;20189;-67
2022/07/20 03:34:53;;;;;;;4.67;3.80;;;14.50;99.90;;;;;;8339673;28;20186;-66
2022/07/20 03:38:54;;;;;;;5.57;4.30;;;14.90;99.90;;;;;;8333129;28;20515;-65
2022/07/20 03:42:54;;;;;;;5.60;4.40;;;15.40;65.80;;;;;;8345308;28;20514;-66
2022/07/20 03:46:55;;;;;;;5.67;4.73;;;15.70;1.00;;;;;;8352566;28;20197;-66
2022/07/20 03:50:56;;;;;;;6.40;4.13;;;15.80;1.00;;;;;;8326532;28;20205;-66
2022/07/20 03:54:57;;;;;;;4.93;3.87;;;16.20;1.00;;;;;;8347005;28;20189;-67
2022/07/20 03:58:57;;;;;;;6.10;3.80;;;17.00;99.90;;;;;;8335178;28;21681;-66
2022/07/20 04:02:58;;;;;;;8.83;3.80;;;17.80;99.90;;;;;;8343366;28;20217;-65
2022/07/20 04:06:59;;;;;;;7.17;4.40;;;18.40;99.90;;;;;;8355963;28;20210;-65
2022/07/20 04:11:00;;;;;;;7.47;4.73;;;18.90;99.90;;;;;;8356108;28;20193;-65
2022/07/20 04:15:01;;;;;;;7.27;5.00;;;19.20;99.90;;;;;;8333014;28;20197;-65
2022/07/20 04:19:01;;;;;;;5.73;4.27;;;19.50;95.90;;;;;;8338320;28;20229;-66
2022/07/20 04:23:02;;;;;;;5.30;4.00;;;19.80;82.50;;;;;;8346734;28;20198;-67
2022/07/20 04:27:04;;;;;;;6.67;4.57;;;20.20;56.70;;;;;;8351229;28;20185;-66
2022/07/20 04:31:05;;;;;;;6.13;4.33;;;20.70;41.90;;;;;;8338265;28;20193;-66
2022/07/20 04:35:07;;;;;;;6.97;4.80;;;21.10;3.30;;;;;;8343916;28;20183;-67
2022/07/20 04:39:08;;;;;;;6.57;4.50;;;21.80;1.00;;;;;;8345511;28;20190;-65
2022/07/20 04:43:08;;;;;;;9.50;4.60;;;22.30;1.00;;;;;;8346932;28;20253;-65
2022/07/20 04:47:09;;;;;;;6.63;4.90;;;22.60;1.00;;;;;;8343047;28;20186;-64
2022/07/20 04:51:10;;;;;;;9.17;5.07;;;22.80;1.00;;;;;;8348621;28;20214;-64
2022/07/20 04:55:11;;;;;;;7.43;4.37;;;22.90;1.00;;;;;;8328442;28;20202;-65
2022/07/20 04:59:12;;;;;;;7.20;4.50;;;23.20;1.00;;;;;;8362996;28;20182;-65
2022/07/20 05:03:12;;;;;;;7.47;4.90;;;23.70;1.00;;;;;;8325491;28;20209;-65
2022/07/20 05:07:14;;;;;;;8.93;4.60;;;24.20;1.00;;;;;;8344631;28;20241;-65
2022/07/20 05:11:15;;;;;;;7.23;4.80;;;24.80;1.00;;;;;;8343246;28;20190;-64
2022/07/20 05:15:16;;;;;;;6.90;4.93;;;25.00;1.00;;;;;;8342786;28;20216;-63
2022/07/20 05:19:17;;;;;;;7.10;5.80;;;24.30;1.00;;;;;;8331208;28;20185;-63
2022/07/20 05:23:17;;;;;;;11.60;6.70;;;23.60;1.00;;;;;;8334164;28;20243;-64
2022/07/20 05:27:18;;;;;;;11.63;6.83;;;23.10;1.00;;;;;;8323736;28;20240;-64
2022/07/20 05:31:19;;;;;;;7.87;6.47;;;22.80;1.00;;;;;;8358319;28;20256;-63
2022/07/20 05:35:20;;;;;;;9.30;7.43;;;22.80;1.00;;;;;;8323687;28;20596;-63
2022/07/20 05:39:21;;;;;;;14.47;8.70;;;22.90;1.00;;;;;;8322271;28;20186;-63
2022/07/20 05:43:22;;;;;;;13.70;8.77;;;23.10;1.00;;;;;;8323949;28;20209;-65
2022/07/20 05:47:23;;;;;;;13.70;6.80;;;23.20;1.00;;;;;;8340676;28;20603;-65
2022/07/20 05:51:23;;;;;;;12.47;5.57;;;23.30;1.00;;;;;;8326888;28;20673;-65
2022/07/20 05:55:25;;;;;;;10.13;6.40;;;23.40;1.00;;;;;;8339569;28;20606;-65
2022/07/20 05:59:25;;;;;;;13.47;7.80;;;23.60;1.00;;;;;;8339006;28;20192;-65
2022/07/20 06:03:26;;;;;;;17.03;5.10;;;23.80;1.00;;;;;;8363210;28;20214;-65
2022/07/20 06:07:27;;;;;;;8.87;5.90;;;24.00;1.00;;;;;;8343847;28;20272;-65
2022/07/20 06:11:28;;;;;;;10.73;5.67;;;24.00;1.00;;;;;;8344320;28;20182;-67
2022/07/20 06:15:29;;;;;;;7.53;5.23;;;24.30;1.00;;;;;;8357596;28;20213;-65
2022/07/20 06:19:29;;;;;;;10.93;5.10;;;24.50;1.00;;;;;;8327451;28;20186;-65
2022/07/20 06:23:30;;;;;;;8.63;5.80;;;24.60;1.00;;;;;;8348606;28;20217;-65
2022/07/20 06:27:31;;;;;;;11.10;6.07;;;24.80;1.00;;;;;;8319897;28;20193;-65
2022/07/20 06:31:32;;;;;;;10.87;5.40;;;25.00;1.00;;;;;;8335437;28;20194;-70
2022/07/20 06:35:32;;;;;;;11.47;6.47;;;25.30;1.00;;;;;;8340247;28;20185;-65
2022/07/20 06:39:33;;;;;;;6.67;5.07;;;25.70;1.00;;;;;;8346127;28;20194;-65
2022/07/20 06:43:34;;;;;;;8.97;5.13;;;25.90;1.00;;;;;;8343519;28;20685;-66
2022/07/20 06:47:35;;;;;;;10.23;5.10;;;26.00;1.00;;;;;;8338429;28;20193;-65
2022/07/20 06:51:36;;;;;;;7.63;4.60;;;26.30;1.00;;;;;;8327207;28;20263;-65
2022/07/20 06:55:36;;;;;;;7.60;4.55;;;26.50;1.00;;;;;;8344263;28;20243;-64
2022/07/20 06:59:37;;;;;;;7.88;4.65;;;26.70;1.00;;;;;;8339366;28;20189;-66
2022/07/20 07:03:38;;;;;;;8.48;4.45;;;26.90;1.00;;;;;;8343442;28;20213;-62
2022/07/20 07:07:39;;;;;;;6.18;3.58;;;27.20;1.00;;;;;;8326952;28;20189;-61
2022/07/20 07:11:40;;;;;;;8.95;3.42;;;27.40;1.00;;;;;;8316760;28;20240;-66
2022/07/20 07:15:40;;;;;;;6.30;4.40;;;27.70;1.00;;;;;;8345718;28;20226;-64
2022/07/20 07:19:41;;;;;;;5.63;3.25;;;28.00;1.00;;;;;;8322182;28;20237;-63
2022/07/20 07:23:42;;;;;;;7.20;3.88;;;28.30;1.00;;;;;;8338906;28;20229;-63
2022/07/20 07:27:43;;;;;;;5.45;3.53;;;28.50;1.00;;;;;;8323067;28;20288;-63
2022/07/20 07:31:44;;;;;;;6.25;3.30;;;28.80;1.00;;;;;;8341302;28;20308;-63
2022/07/20 07:35:45;;;;;;;6.53;3.20;;;29.00;1.00;;;;;;8346683;28;20186;-67
2022/07/20 07:39:46;;;;;;;4.30;2.88;;;29.20;1.00;;;;;;8346759;28;20186;-61
2022/07/20 07:43:46;;;;;;;7.75;2.72;;;29.40;1.00;;;;;;8349769;28;20300;-64
2022/07/20 07:47:47;;;;;;;4.80;2.60;;;29.60;1.00;;;;;;8337997;28;20190;-67
2022/07/20 07:51:48;;;;;;;6.95;2.65;;;29.80;1.00;;;;;;8343749;28;20226;-64
2022/07/20 07:55:49;;;;;;;3.33;2.13;;;30.00;1.00;;;;;;8345596;28;20182;-71
2022/07/20 07:59:50;;;;;;;6.88;2.03;;;30.10;1.00;;;;;;8347519;28;20186;-61
2022/07/20 08:03:51;;;;;;;9.13;2.70;;;30.30;1.00;;;;;;8345249;28;20412;-62
2022/07/20 08:07:51;;;;;;;3.17;2.47;;;30.40;1.00;;;;;;8345171;28;20280;-61
2022/07/20 08:11:52;;;;;;;5.80;2.97;;;30.40;1.00;;;;;;8327413;28;20189;-62
2022/07/20 08:15:53;;;;;;;4.00;2.55;;;30.50;1.00;;;;;;8337245;28;20190;-63
2022/07/20 08:19:54;;;;;;;5.15;2.45;;;30.60;1.00;;;;;;8338075;28;20178;-62
2022/07/20 08:23:55;;;;;;;5.32;2.70;;;30.70;1.00;;;;;;8343570;28;20264;-67
2022/07/20 08:28:18;;;;;;;5.63;2.83;;;30.90;1.00;;;;;;8342876;28;20182;-65
2022/07/20 08:32:19;;;;;;;7.45;2.85;;;31.00;1.00;;;;;;8329133;28;20210;-63
2022/07/20 08:36:20;;;;;;;11.32;3.28;;;31.20;1.00;;;;;;8340402;28;20201;-62
2022/07/20 08:40:20;;;;;;;6.35;3.40;;;31.40;1.00;;;;;;8332535;28;20195;-62
2022/07/20 08:44:21;;;;;;;7.28;3.22;;;31.50;1.00;;;;;;8322465;28;20202;-61
2022/07/20 08:48:22;;;;;;;4.35;2.50;;;31.70;1.00;;;;;;8342284;28;20185;-61
2022/07/20 08:52:23;;;;;;;8.23;4.03;;;32.00;1.00;;;;;;8330394;28;20214;-63
2022/07/20 08:56:24;;;;;;;4.93;2.97;;;32.10;1.00;;;;;;8330027;28;20182;-61
2022/07/20 09:00:25;;;;;;;7.00;2.88;;;32.20;1.00;;;;;;8356494;28;20212;-64
2022/07/20 09:04:26;;;;;;;9.18;2.65;;;32.40;1.00;;;;;;8323663;28;20216;-61
2022/07/20 09:08:27;;;;;;;5.32;2.53;;;32.50;1.00;;;;;;8341970;28;20186;-62
2022/07/20 09:12:28;;;;;;;3.42;2.33;;;32.70;1.00;;;;;;8322180;28;20190;-67
2022/07/20 09:16:43;;;;;;;4.43;2.53;;;32.80;1.00;;;;;;8321126;28;20281;-62
2022/07/20 09:20:53;;;;;;;6.50;2.30;;;32.90;1.00;;;;;;8358467;28;20802;-63
2022/07/20 09:25:14;;;;;;;5.63;2.47;;;32.90;1.00;;;;;;8325645;28;20213;-59
2022/07/20 09:29:15;;;;;;;5.30;2.20;;;33.20;99.90;;;;;;8323035;28;20252;-62
2022/07/20 09:33:24;;;;;;;2.67;2.28;;;33.40;99.90;;;;;;8323378;28;20190;-62
2022/07/20 09:37:24;;;;;;;4.95;2.58;;;33.40;99.90;;;;;;8323421;28;20221;-62
2022/07/20 09:41:28;;;;;;;3.90;2.38;;;33.60;99.90;;;;;;8320730;28;20214;-61
2022/07/20 09:45:29;;;;;;;5.43;2.38;;;33.50;99.90;;;;;;8345326;28;20179;-60
2022/07/20 09:49:34;;;;;;;3.75;2.10;;;33.70;99.90;;;;;;8315485;28;20197;-61
2022/07/20 09:53:35;;;;;;;5.13;2.53;;;33.80;99.90;;;;;;8335043;28;20213;-64
2022/07/20 09:57:36;;;;;;;6.00;2.42;;;33.80;1.00;;;;;;8327828;28;20256;-62
2022/07/20 10:01:39;;;;;;;6.13;2.88;;;33.90;99.90;;;;;;8334563;28;20221;-64
2022/07/20 10:05:40;;;;;;;4.20;2.40;;;34.00;99.90;;;;;;8331001;28;20190;-61
2022/07/20 10:09:42;;;;;;;7.55;2.30;;;34.00;99.90;;;;;;8314688;28;20213;-64
2022/07/20 10:13:44;;;;;;;5.03;2.63;;;34.20;99.90;;;;;;8329248;28;20189;-63
2022/07/20 10:17:45;;;;;;;4.25;2.60;;;34.30;99.90;;;;;;8338290;28;20192;-67
2022/07/20 10:21:48;;;;;;;5.47;2.42;;;34.50;99.90;;;;;;8318412;28;20226;-64
2022/07/20 10:25:49;;;;;;;7.20;2.78;;;34.60;99.90;;;;;;8331011;28;20186;-66
2022/07/20 10:29:52;;;;;;;6.35;2.75;;;34.80;99.90;;;;;;8330698;28;20178;-62
2022/07/20 10:33:53;;;;;;;6.35;2.70;;;34.90;99.90;;;;;;8318211;28;20252;-62
2022/07/20 10:37:56;;;;;;;4.78;2.63;;;35.00;99.90;;;;;;8332470;28;20478;-63
2022/07/20 10:42:23;;;;;;;4.63;2.67;;;35.10;99.90;;;;;;8330936;28;20218;-66
2022/07/20 10:46:34;;;;;;;5.85;2.75;;;35.20;99.90;;;;;;8346287;28;20205;-63
2022/07/20 10:50:38;;;;;;;6.45;2.65;;;35.20;99.90;;;;;;8332676;28;20214;-60
2022/07/20 10:54:38;;;;;;;7.32;2.92;;;35.40;99.90;;;;;;8318958;28;20194;-67
2022/07/20 10:58:42;;;;;;;8.43;2.70;;;35.40;99.90;;;;;;8333295;28;20202;-67
2022/07/20 11:02:43;;;;;;;5.60;2.50;;;35.30;99.90;;;;;;8331163;28;20221;-61
2022/07/20 11:06:44;;;;;;;5.97;2.75;;;35.30;99.90;;;;;;8329718;28;20269;-62
2022/07/20 11:10:45;;;;;;;4.45;2.45;;;35.40;99.90;;;;;;8336672;28;20186;-59
2022/07/20 11:14:56;;;;;;;5.70;3.42;;;35.50;99.90;;;;;;8315181;28;20244;-64
2022/07/20 11:18:59;;;;;;;4.28;3.10;;;35.70;99.90;;;;;;8322520;28;20186;-63
2022/07/20 11:23:02;;;;;;;10.07;3.45;;;35.80;99.90;;;;;;8313369;28;20328;-64
2022/07/20 11:27:16;;;;;;;6.55;2.70;;;36.00;99.90;;;;;;8316836;28;20182;-62
2022/07/20 11:31:23;;;;;;;7.05;3.10;;;35.90;99.90;;;;;;8334687;28;20177;-62
2022/07/20 11:35:24;;;;;;;6.10;3.45;;;35.70;99.90;;;;;;8315525;28;20186;-65
2022/07/20 11:39:25;;;;;;;8.65;2.80;;;35.80;99.90;;;;;;8319479;28;20189;-63
2022/07/20 11:43:26;;;;;;;8.20;3.10;;;36.00;99.90;;;;;;8332777;28;20210;-67
2022/07/20 11:47:27;;;;;;;5.30;3.10;;;36.20;99.90;;;;;;8331094;28;20217;-63
2022/07/20 11:51:30;;;;;;;5.43;3.45;;;36.10;99.90;;;;;;8313464;28;20220;-68
2022/07/20 11:55:35;;;;;;;4.65;3.35;;;36.00;99.90;;;;;;8332536;28;20243;-61
2022/07/20 11:59:44;;;;;;;9.95;3.22;;;35.90;99.90;;;;;;8351004;28;20213;-61
2022/07/20 12:04:00;;;;;;;13.13;3.40;;;35.90;99.90;;;;;;8326681;28;20214;-64
2022/07/20 12:08:18;;;;;;;4.60;3.28;;;35.80;99.90;;;;;;8338721;28;20232;-62
2022/07/20 12:12:47;;;;;;;5.97;3.15;;;35.90;99.90;;;;;;8326219;28;20187;-62
2022/07/20 12:16:49;;;;;;;6.57;3.38;;;36.00;99.90;;;;;;8333732;28;20592;-64
2022/07/20 12:21:00;;;;;;;5.63;3.40;;;36.00;99.90;;;;;;8321710;28;20206;-62
2022/07/20 12:25:03;;;;;;;3.80;2.80;;;36.20;99.90;;;;;;8335934;28;20217;-60
2022/07/20 12:29:25;;;;;;;7.65;3.20;;;36.30;99.90;;;;;;8340072;28;20181;-64
2022/07/20 12:33:26;;;;;;;9.23;3.53;;;36.30;99.90;;;;;;8346171;28;20189;-63
2022/07/20 12:37:46;;;;;;;4.45;3.00;;;36.40;99.90;;;;;;8336789;28;20186;-62
2022/07/20 12:42:23;;;;;;;4.40;3.17;;;36.40;99.90;;;;;;8341023;28;20210;-61
2022/07/20 12:46:25;;;;;;;6.28;3.58;;;36.30;99.90;;;;;;8350308;28;20197;-60
2022/07/20 12:50:26;;;;;;;8.70;3.47;;;36.10;99.90;;;;;;8331188;28;20213;-64
2022/07/20 12:54:27;;;;;;;5.72;3.28;;;36.10;99.90;;;;;;8331397;28;20220;-65
2022/07/20 12:58:27;;;;;;;7.32;3.45;;;36.10;99.90;;;;;;8328482;28;20182;-61
2022/07/20 13:02:28;;;;;;;5.30;3.22;;;36.10;99.90;;;;;;8325433;28;20221;-67
2022/07/20 13:06:35;;;;;;;5.05;3.03;;;36.30;99.90;;;;;;8342030;28;20530;-67
2022/07/20 13:10:36;;;;;;;8.20;3.78;;;36.40;99.90;;;;;;8337173;28;20186;-66
2022/07/20 13:14:36;;;;;;;7.15;3.38;;;36.40;99.90;;;;;;8336855;28;20248;-67
2022/07/20 13:18:37;;;;;;;5.63;3.15;;;36.40;99.90;;;;;;8338173;28;20182;-66
2022/07/20 13:22:38;;;;;;;9.02;3.80;;;36.30;99.90;;;;;;8340899;28;20214;-64
2022/07/20 13:26:44;;;;;;;6.68;3.35;;;36.40;99.90;;;;;;8326594;28;20225;-65
2022/07/20 13:30:45;;;;;;;6.20;3.22;;;36.30;99.90;;;;;;8341880;28;20178;-65
2022/07/20 13:34:46;;;;;;;5.43;3.42;;;36.30;99.90;;;;;;8343611;28;20198;-69
2022/07/20 13:38:48;;;;;;;7.03;3.40;;;36.40;99.90;;;;;;8339906;28;20186;-69
2022/07/20 13:42:49;;;;;;;5.45;3.38;;;36.40;99.90;;;;;;8336635;28;20353;-65
2022/07/20 13:46:50;;;;;;;4.65;3.28;;;36.40;99.90;;;;;;8320982;28;20357;-66
2022/07/20 13:50:51;;;;;;;8.10;3.65;;;36.50;99.90;;;;;;8353463;28;20240;-66
2022/07/20 13:54:52;;;;;;;6.22;3.55;;;36.50;99.90;;;;;;8347206;28;20619;-68
2022/07/20 13:58:53;;;;;;;8.55;3.53;;;36.40;99.90;;;;;;8329574;28;20225;-63
2022/07/20 14:02:54;;;;;;;8.13;3.72;;;36.50;99.90;;;;;;8340355;28;20209;-64
2022/07/20 14:06:55;;;;;;;10.05;3.53;;;36.60;99.90;;;;;;8324631;28;20186;-66
2022/07/20 14:10:56;;;;;;;6.75;3.63;;;36.50;99.90;;;;;;8328789;28;20213;-66
2022/07/20 14:14:56;;;;;;;7.00;3.47;;;36.50;99.90;;;;;;8323732;28;20196;-69
2022/07/20 14:18:57;;;;;;;5.47;3.20;;;36.50;99.90;;;;;;8323028;28;20213;-68
2022/07/20 14:22:58;;;;;;;6.72;3.90;;;36.60;99.90;;;;;;8339554;28;20205;-63
2022/07/20 14:26:59;;;;;;;9.23;3.58;;;36.70;99.90;;;;;;8351427;28;20181;-63
2022/07/20 14:31:00;;;;;;;6.85;3.22;;;36.80;99.90;;;;;;8320610;28;20193;-62
2022/07/20 14:35:01;;;;;;;5.90;3.45;;;36.80;99.90;;;;;;8338164;28;20635;-66
2022/07/20 14:39:02;;;;;;;5.60;3.30;;;36.70;99.90;;;;;;8335645;28;20240;-65
2022/07/20 14:43:03;;;;;;;5.22;3.58;;;36.70;99.90;;;;;;8334938;28;20214;-67
2022/07/20 14:47:04;;;;;;;6.90;3.30;;;36.70;99.90;;;;;;8320415;28;20222;-64
2022/07/20 14:51:05;;;;;;;6.50;3.70;;;36.60;99.90;;;;;;8338819;28;20198;-64
2022/07/20 14:55:06;;;;;;;7.88;4.20;;;36.60;99.90;;;;;;8326954;28;20235;-67
2022/07/20 14:59:07;;;;;;;9.65;3.65;;;36.40;99.90;;;;;;8317517;28;20193;-64
2022/07/20 15:03:08;;;;;;;7.50;3.75;;;36.30;99.90;;;;;;8333917;28;20218;-67
2022/07/20 15:07:09;;;;;;;8.68;3.47;;;36.10;99.90;;;;;;8334706;28;20248;-66
2022/07/20 15:11:10;;;;;;;7.38;3.60;;;36.00;99.90;;;;;;8330489;28;20189;-67
2022/07/20 15:15:11;;;;;;;7.13;3.22;;;36.00;99.90;;;;;;8334610;28;20190;-68
2022/07/20 15:19:12;;;;;;;7.93;3.85;;;36.10;99.90;;;;;;8316593;28;20197;-66
2022/07/20 15:23:13;;;;;;;8.10;3.72;;;36.10;99.90;;;;;;8352362;28;20217;-66
2022/07/20 15:27:14;;;;;;;8.18;3.45;;;36.00;99.90;;;;;;8321034;28;20190;-66
2022/07/20 15:31:15;;;;;;;4.35;3.28;;;36.00;99.90;;;;;;8323355;28;20216;-69
2022/07/20 15:35:16;;;;;;;6.68;3.60;;;36.00;99.90;;;;;;8342909;28;20182;-64
2022/07/20 15:39:18;;;;;;;4.97;3.72;;;35.90;99.90;;;;;;8338898;28;20193;-67
2022/07/20 15:43:18;;;;;;;4.60;3.50;;;35.90;99.90;;;;;;8343242;28;20208;-66
2022/07/20 15:47:20;;;;;;;8.43;3.80;;;35.80;99.90;;;;;;8327589;28;20253;-67
2022/07/20 15:51:21;;;;;;;7.68;3.70;;;35.80;99.90;;;;;;8342624;28;20210;-63
2022/07/20 15:55:22;;;;;;;7.55;3.92;;;35.80;99.90;;;;;;8326746;28;20236;-67
2022/07/20 15:59:25;;;;;;;7.03;3.83;;;35.80;99.90;;;;;;8326773;28;20201;-69
2022/07/20 16:03:26;;;;;;;8.10;3.40;;;35.90;99.90;;;;;;8325270;28;20253;-66
2022/07/20 16:07:27;;;;;;;11.10;3.60;;;35.80;99.90;;;;;;8329111;28;20213;-70
2022/07/20 16:11:28;;;;;;;7.60;3.65;;;35.80;99.90;;;;;;8321946;28;20190;-65
2022/07/20 16:15:29;;;;;;;6.00;3.55;;;35.50;99.90;;;;;;8321046;28;20256;-68
2022/07/20 16:19:30;;;;;;;4.15;3.45;;;35.50;99.90;;;;;;8347941;28;20256;-68
2022/07/20 16:23:31;;;;;;;4.38;3.38;;;35.40;99.90;;;;;;8355830;28;20841;-65
2022/07/20 16:27:32;;;;;;;8.43;3.47;;;35.40;99.90;;;;;;8343080;28;20249;-65
2022/07/20 16:31:33;;;;;;;9.32;3.22;;;35.40;99.90;;;;;;8329642;28;20182;-68
2022/07/20 16:35:34;;;;;;;8.02;3.42;;;35.30;99.90;;;;;;8344785;28;20185;-65
2022/07/20 16:39:35;;;;;;;6.93;3.40;;;35.30;99.90;;;;;;8328145;28;21320;-68
2022/07/20 16:43:36;;;;;;;7.38;3.60;;;35.20;99.90;;;;;;8339405;28;20207;-65
2022/07/20 16:47:38;;;;;;;11.23;3.60;;;35.20;99.90;;;;;;8347716;28;20309;-69
2022/07/20 16:51:39;;;;;;;7.00;3.60;;;35.20;99.90;;;;;;8329186;28;20296;-66
2022/07/20 16:55:40;;;;;;;9.00;3.50;;;35.10;99.90;;;;;;8342483;28;20570;-68
2022/07/20 16:59:41;;;;;;;6.57;3.22;;;34.90;99.90;;;;;;8327462;28;20190;-68
2022/07/20 17:03:42;;;;;;;8.77;3.10;;;34.70;99.90;;;;;;8339095;28;20211;-69
2022/07/20 17:07:43;;;;;;;7.20;3.63;;;34.50;99.90;;;;;;8337360;28;20186;-68
2022/07/20 17:11:44;;;;;;;8.00;3.28;;;34.30;99.90;;;;;;8344394;28;20493;-65
2022/07/20 17:15:45;;;;;;;8.68;3.60;;;34.10;99.90;;;;;;8341976;28;20304;-66
2022/07/20 17:19:45;;;;;;;9.30;3.15;;;34.00;99.90;;;;;;8342687;28;20273;-63
2022/07/20 17:23:46;;;;;;;11.15;3.70;;;33.80;99.90;;;;;;8330021;28;20693;-65
2022/07/20 17:27:48;;;;;;;5.60;3.28;;;33.60;99.90;;;;;;8337617;28;20245;-66
2022/07/20 17:31:50;;;;;;;10.63;3.95;;;33.50;99.90;;;;;;8322185;28;20186;-65
2022/07/20 17:35:50;;;;;;;7.50;3.38;;;33.20;99.90;;;;;;8322316;28;20194;-65
2022/07/20 17:39:51;;;;;;;4.63;3.50;;;33.10;99.90;;;;;;8343262;28;20201;-67
2022/07/20 17:43:52;;;;;;;8.15;3.25;;;32.90;99.90;;;;;;8325355;28;20213;-67
2022/07/20 17:47:53;;;;;;;6.10;3.42;;;32.70;99.90;;;;;;8340402;28;20191;-65
2022/07/20 17:51:54;;;;;;;6.97;3.28;;;32.60;99.90;;;;;;8338282;28;20277;-64
2022/07/20 17:55:55;;;;;;;4.60;2.95;;;32.60;99.90;;;;;;8328160;28;20272;-64
2022/07/20 17:59:55;;;;;;;7.75;3.45;;;32.80;99.90;;;;;;8341881;28;20265;-65
2022/07/20 18:03:56;;;;;;;6.10;3.10;;;32.80;99.90;;;;;;8339062;28;20271;-64
2022/07/20 18:07:57;;;;;;;5.80;3.05;;;32.70;99.90;;;;;;8340657;28;20182;-66
2022/07/20 18:11:58;;;;;;;5.40;3.38;;;32.50;99.90;;;;;;8325178;28;20707;-65
2022/07/20 18:15:59;;;;;;;5.38;3.00;;;32.40;99.90;;;;;;8318496;28;20193;-65
2022/07/20 18:20:00;;;;;;;4.47;2.95;;;32.40;99.90;;;;;;8322468;28;20214;-65
2022/07/20 18:24:01;;;;;;;5.63;3.00;;;32.50;99.90;;;;;;8317107;28;20205;-65
2022/07/20 18:28:01;;;;;;;5.97;3.40;;;32.70;99.90;;;;;;8348218;28;20185;-62
2022/07/20 18:32:02;;;;;;;9.65;2.90;;;32.70;99.90;;;;;;8323447;28;20213;-62
2022/07/20 18:36:04;;;;;;;5.95;3.22;;;32.60;99.90;;;;;;8319045;28;20186;-63
2022/07/20 18:40:06;;;;;;;5.43;3.22;;;32.40;99.90;;;;;;8332670;28;20193;-65
2022/07/20 18:44:07;;;;;;;5.88;2.97;;;32.10;99.90;;;;;;8337180;28;20264;-64
2022/07/20 18:48:09;;;;;;;6.55;3.40;;;31.80;99.90;;;;;;8327440;28;20193;-65
2022/07/20 18:52:09;;;;;;;5.00;3.42;;;31.40;99.90;;;;;;8321323;28;20220;-63
2022/07/20 18:56:11;;;;;;;3.58;3.08;;;30.90;99.90;;;;;;8350292;28;20280;-67
2022/07/20 19:00:13;;;;;;;4.25;3.13;;;30.50;99.90;;;;;;8327742;28;20225;-62
2022/07/20 19:04:13;;;;;;;6.90;3.30;;;30.00;99.90;;;;;;8324451;28;20206;-64
2022/07/20 19:08:15;;;;;;;8.02;3.17;;;29.60;99.90;;;;;;8321927;28;20197;-66
2022/07/20 19:12:16;;;;;;;4.10;3.58;;;29.10;99.90;;;;;;8341472;28;20192;-66
2022/07/20 19:16:19;;;;;;;9.45;4.05;;;28.80;99.90;;;;;;8348622;28;20190;-64
2022/07/20 19:20:24;;;;;;;7.20;4.10;;;28.40;99.90;;;;;;8339240;28;20182;-66
2022/07/20 19:24:25;;;;;;;5.93;3.88;;;28.10;99.90;;;;;;8316828;28;20238;-65
2022/07/20 19:28:26;;;;;;;7.60;3.85;;;27.70;99.90;;;;;;8324153;28;20177;-65
2022/07/20 19:32:27;;;;;;;4.50;3.25;;;27.30;99.90;;;;;;8343411;28;20189;-66
2022/07/20 19:36:28;;;;;;;7.15;3.47;;;26.90;1.00;;;;;;8335739;28;20385;-64
2022/07/20 19:40:29;;;;;;;5.33;3.40;;;26.60;1.00;;;;;;8326291;28;20197;-63
2022/07/20 19:44:31;;;;;;;7.03;3.40;;;26.30;1.00;;;;;;8328455;28;20206;-64
2022/07/20 19:48:31;;;;;;;4.90;3.50;;;26.10;1.00;;;;;;8357939;28;20313;-62
2022/07/20 19:52:33;;;;;;;5.37;3.40;;;25.90;1.00;;;;;;8336717;28;20248;-65
2022/07/20 19:56:33;;;;;;;5.67;3.10;;;25.70;1.00;;;;;;8354964;28;20299;-67
2022/07/20 20:00:34;;;;;;;4.70;3.73;;;25.50;1.00;;;;;;8337515;28;20186;-67
2022/07/20 20:04:42;;;;;;;6.47;4.00;;;25.30;1.00;;;;;;8321250;28;20246;-68
2022/07/20 20:08:43;;;;;;;4.77;3.60;;;25.10;1.00;;;;;;8336496;28;20181;-67
2022/07/20 20:12:44;;;;;;;5.77;4.10;;;24.90;1.00;;;;;;8326947;28;20194;-66
2022/07/20 20:16:45;;;;;;;8.23;4.30;;;24.70;1.00;;;;;;8325546;28;20204;-68
2022/07/20 20:20:46;;;;;;;7.27;3.90;;;24.60;1.00;;;;;;8327510;28;20269;-67
2022/07/20 20:24:46;;;;;;;12.57;4.37;;;24.50;1.00;;;;;;8329588;28;20220;-65
2022/07/20 20:28:47;;;;;;;10.43;4.47;;;24.30;1.00;;;;;;8340842;28;20382;-66
2022/07/20 20:32:48;;;;;;;7.17;4.50;;;24.20;1.00;;;;;;8324333;28;20277;-65
2022/07/20 20:36:49;;;;;;;9.13;4.37;;;24.10;1.00;;;;;;8321899;28;20186;-67
2022/07/20 20:40:52;;;;;;;6.70;3.80;;;24.00;1.00;;;;;;8351786;28;20253;-66
2022/07/20 20:44:53;;;;;;;9.37;4.50;;;23.90;1.00;;;;;;8317501;28;20212;-68
2022/07/20 20:48:54;;;;;;;9.03;4.10;;;23.80;1.00;;;;;;8338433;28;20193;-66
2022/07/20 20:52:54;;;;;;;9.10;4.93;;;23.70;1.00;;;;;;8321639;28;20229;-67
2022/07/20 20:56:55;;;;;;;12.97;4.57;;;23.70;1.00;;;;;;8322659;28;20221;-65
2022/07/20 21:00:58;;;;;;;9.57;4.87;;;23.60;1.00;;;;;;8316315;28;20181;-65
2022/07/20 21:04:59;;;;;;;12.03;4.50;;;23.40;1.00;;;;;;8338562;28;20300;-65
2022/07/20 21:09:00;;;;;;;9.33;4.23;;;23.30;1.00;;;;;;8318736;28;20182;-65